sensor_id;sensor_type;location;lat;lon;timestamp;temperature;humidity
4594;DHT22;2309;51.674;8.368;2023-05-10T00:01:08;14.40;99.90
4594;DHT22;2309;51.674;8.368;2023-05-10T00:03:35;14.30;99.90
4594;DHT22;2309;51.674;8.368;2023-05-10T00:06:02;14.30;99.90
4594;DHT22;2309;51.674;8.368;2023-05-10T00:08:29;14.30;99.90
4594;DHT22;2309;51.674;8.368;2023-05-10T00:10:56;14.20;99.90
4594;DHT22;2309;51.674;8.368;2023-05-10T00:13:23;14.30;99.90
4594;DHT22;2309;51.674;8.368;2023-05-10T00:15:49;14.30;99.90
4594;DHT22;2309;51.674;8.368;2023-05-10T00:18:18;14.40;99.90
4594;DHT22;2309;51.674;8.368;2023-05-10T00:20:45;14.40;99.90
4594;DHT22;2309;51.674;8.368;2023-05-10T00:23:12;14.30;99.90
4594;DHT22;2309;51.674;8.368;2023-05-10T00:25:38;14.40;99.90
4594;DHT22;2309;51.674;8.368;2023-05-10T00:28:05;14.40;99.90
4594;DHT22;2309;51.674;8.368;2023-05-10T00:30:32;14.50;99.90
4594;DHT22;2309;51.674;8.368;2023-05-10T00:32:59;14.40;99.90
4594;DHT22;2309;51.674;8.368;2023-05-10T00:35:26;14.50;99.90
4594;DHT22;2309;51.674;8.368;2023-05-10T00:37:53;14.40;99.90
4594;DHT22;2309;51.674;8.368;2023-05-10T00:40:19;14.40;99.90
4594;DHT22;2309;51.674;8.368;2023-05-10T00:42:46;14.40;99.90
4594;DHT22;2309;51.674;8.368;2023-05-10T00:45:15;14.40;99.90
4594;DHT22;2309;51.674;8.368;2023-05-10T00:47:41;14.40;99.90
4594;DHT22;2309;51.674;8.368;2023-05-10T00:50:08;14.40;99.90
4594;DHT22;2309;51.674;8.368;2023-05-10T00:52:36;14.50;99.90
4594;DHT22;2309;51.674;8.368;2023-05-10T00:55:05;14.40;99.90
4594;DHT22;2309;51.674;8.368;2023-05-10T00:57:33;14.40;99.90
4594;DHT22;2309;51.674;8.368;2023-05-10T00:59:59;14.40;99.90
4594;DHT22;2309;51.674;8.368;2023-05-10T01:02:30;14.30;99.90
4594;DHT22;2309;51.674;8.368;2023-05-10T01:05:16;13.90;99.90
4594;DHT22;2309;51.674;8.368;2023-05-10T01:07:43;13.60;99.90
4594;DHT22;2309;51.674;8.368;2023-05-10T01:10:10;13.50;99.90
4594;DHT22;2309;51.674;8.368;2023-05-10T01:12:38;13.40;99.90
4594;DHT22;2309;51.674;8.368;2023-05-10T01:15:06;13.40;99.90
4594;DHT22;2309;51.674;8.368;2023-05-10T01:17:35;13.40;99.90
4594;DHT22;2309;51.674;8.368;2023-05-10T01:20:02;13.40;99.90
4594;DHT22;2309;51.674;8.368;2023-05-10T01:27:38;13.30;99.90
4594;DHT22;2309;51.674;8.368;2023-05-10T01:30:01;13.30;99.90
4594;DHT22;2309;51.674;8.368;2023-05-10T01:32:27;13.20;99.90
4594;DHT22;2309;51.674;8.368;2023-05-10T01:35:09;13.20;99.90
4594;DHT22;2309;51.674;8.368;2023-05-10T01:37:21;13.10;99.90
4594;DHT22;2309;51.674;8.368;2023-05-10T01:39:54;13.20;99.90
4594;DHT22;2309;51.674;8.368;2023-05-10T01:42:20;13.20;99.90
4594;DHT22;2309;51.674;8.368;2023-05-10T01:44:49;13.20;99.90
4594;DHT22;2309;51.674;8.368;2023-05-10T01:47:15;13.10;99.90
4594;DHT22;2309;51.674;8.368;2023-05-10T01:49:43;13.10;99.90
4594;DHT22;2309;51.674;8.368;2023-05-10T01:52:10;13.10;99.90
4594;DHT22;2309;51.674;8.368;2023-05-10T01:54:38;13.10;99.90
4594;DHT22;2309;51.674;8.368;2023-05-10T01:57:06;13.10;99.90
4594;DHT22;2309;51.674;8.368;2023-05-10T01:59:36;13.00;99.90
4594;DHT22;2309;51.674;8.368;2023-05-10T02:02:05;13.10;99.90
4594;DHT22;2309;51.674;8.368;2023-05-10T02:04:34;13.00;99.90
4594;DHT22;2309;51.674;8.368;2023-05-10T02:07:03;13.00;99.90
4594;DHT22;2309;51.674;8.368;2023-05-10T02:09:30;13.00;99.90
4594;DHT22;2309;51.674;8.368;2023-05-10T02:11:59;13.00;99.90
4594;DHT22;2309;51.674;8.368;2023-05-10T02:14:26;12.90;99.90
4594;DHT22;2309;51.674;8.368;2023-05-10T02:16:54;12.90;99.90
4594;DHT22;2309;51.674;8.368;2023-05-10T02:19:22;12.90;99.90
4594;DHT22;2309;51.674;8.368;2023-05-10T02:21:51;12.80;99.90
4594;DHT22;2309;51.674;8.368;2023-05-10T02:24:18;12.80;99.90
4594;DHT22;2309;51.674;8.368;2023-05-10T02:26:45;12.80;99.90
4594;DHT22;2309;51.674;8.368;2023-05-10T02:29:14;12.90;99.90
4594;DHT22;2309;51.674;8.368;2023-05-10T02:31:42;12.90;99.90
4594;DHT22;2309;51.674;8.368;2023-05-10T02:34:11;12.90;99.90
4594;DHT22;2309;51.674;8.368;2023-05-10T02:36:42;12.90;99.90
4594;DHT22;2309;51.674;8.368;2023-05-10T02:39:11;13.00;99.90
4594;DHT22;2309;51.674;8.368;2023-05-10T02:41:43;13.00;99.90
4594;DHT22;2309;51.674;8.368;2023-05-10T02:44:15;13.00;99.90
4594;DHT22;2309;51.674;8.368;2023-05-10T02:46:42;12.90;99.90
4594;DHT22;2309;51.674;8.368;2023-05-10T02:49:11;13.00;99.90
4594;DHT22;2309;51.674;8.368;2023-05-10T02:51:44;12.90;99.90
4594;DHT22;2309;51.674;8.368;2023-05-10T02:54:16;13.00;99.90
4594;DHT22;2309;51.674;8.368;2023-05-10T02:56:42;13.00;99.90
4594;DHT22;2309;51.674;8.368;2023-05-10T02:59:11;13.00;99.90
4594;DHT22;2309;51.674;8.368;2023-05-10T03:01:41;12.90;99.90
4594;DHT22;2309;51.674;8.368;2023-05-10T03:04:13;12.80;99.90
4594;DHT22;2309;51.674;8.368;2023-05-10T03:06:42;12.90;99.90
4594;DHT22;2309;51.674;8.368;2023-05-10T03:09:09;12.90;99.90
4594;DHT22;2309;51.674;8.368;2023-05-10T03:11:56;12.80;99.90
4594;DHT22;2309;51.674;8.368;2023-05-10T03:14:16;12.90;99.90
4594;DHT22;2309;51.674;8.368;2023-05-10T03:16:45;12.90;99.90
4594;DHT22;2309;51.674;8.368;2023-05-10T03:19:22;12.80;99.90
4594;DHT22;2309;51.674;8.368;2023-05-10T03:21:57;12.80;99.90
4594;DHT22;2309;51.674;8.368;2023-05-10T03:24:32;12.90;99.90
4594;DHT22;2309;51.674;8.368;2023-05-10T03:27:00;12.90;99.90
4594;DHT22;2309;51.674;8.368;2023-05-10T03:35:13;12.90;99.90
4594;DHT22;2309;51.674;8.368;2023-05-10T03:37:58;12.90;99.90
4594;DHT22;2309;51.674;8.368;2023-05-10T03:48:47;12.80;99.90
4594;DHT22;2309;51.674;8.368;2023-05-10T03:51:14;12.70;99.90
4594;DHT22;2309;51.674;8.368;2023-05-10T03:53:44;12.70;99.90
4594;DHT22;2309;51.674;8.368;2023-05-10T03:56:09;12.70;99.90
4594;DHT22;2309;51.674;8.368;2023-05-10T03:58:36;12.60;99.90
4594;DHT22;2309;51.674;8.368;2023-05-10T04:01:03;12.60;99.90
4594;DHT22;2309;51.674;8.368;2023-05-10T04:03:30;12.50;99.90
4594;DHT22;2309;51.674;8.368;2023-05-10T04:05:59;12.50;99.90
4594;DHT22;2309;51.674;8.368;2023-05-10T04:10:53;12.50;99.90
4594;DHT22;2309;51.674;8.368;2023-05-10T04:13:20;11.90;99.90
4594;DHT22;2309;51.674;8.368;2023-05-10T04:15:47;12.30;99.90
4594;DHT22;2309;51.674;8.368;2023-05-10T04:18:13;12.30;99.90
4594;DHT22;2309;51.674;8.368;2023-05-10T04:20:40;12.30;99.90
4594;DHT22;2309;51.674;8.368;2023-05-10T04:23:07;12.20;99.90
4594;DHT22;2309;51.674;8.368;2023-05-10T04:25:34;12.30;99.90
4594;DHT22;2309;51.674;8.368;2023-05-10T04:28:01;12.30;99.90
4594;DHT22;2309;51.674;8.368;2023-05-10T04:30:28;12.30;99.90
4594;DHT22;2309;51.674;8.368;2023-05-10T04:32:55;12.00;99.90
4594;DHT22;2309;51.674;8.368;2023-05-10T04:35:22;12.30;99.90
4594;DHT22;2309;51.674;8.368;2023-05-10T04:37:48;11.00;99.90
4594;DHT22;2309;51.674;8.368;2023-05-10T04:40:15;12.30;99.90
4594;DHT22;2309;51.674;8.368;2023-05-10T04:42:43;12.30;99.90
4594;DHT22;2309;51.674;8.368;2023-05-10T04:45:10;12.30;99.90
4594;DHT22;2309;51.674;8.368;2023-05-10T04:47:37;12.30;99.90
4594;DHT22;2309;51.674;8.368;2023-05-10T04:50:04;12.30;99.90
4594;DHT22;2309;51.674;8.368;2023-05-10T04:52:31;13.00;99.90
4594;DHT22;2309;51.674;8.368;2023-05-10T04:54:57;12.30;99.90
4594;DHT22;2309;51.674;8.368;2023-05-10T04:57:24;12.30;99.90
4594;DHT22;2309;51.674;8.368;2023-05-10T04:59:51;12.30;99.90
4594;DHT22;2309;51.674;8.368;2023-05-10T05:02:18;12.30;99.90
4594;DHT22;2309;51.674;8.368;2023-05-10T05:04:45;12.30;99.90
4594;DHT22;2309;51.674;8.368;2023-05-10T05:07:12;12.30;99.90
4594;DHT22;2309;51.674;8.368;2023-05-10T05:09:39;12.40;99.90
4594;DHT22;2309;51.674;8.368;2023-05-10T05:12:05;12.30;99.90
4594;DHT22;2309;51.674;8.368;2023-05-10T05:14:32;12.30;99.90
4594;DHT22;2309;51.674;8.368;2023-05-10T05:16:59;12.30;99.90
4594;DHT22;2309;51.674;8.368;2023-05-10T05:19:26;12.40;99.90
4594;DHT22;2309;51.674;8.368;2023-05-10T05:21:53;12.40;99.90
4594;DHT22;2309;51.674;8.368;2023-05-10T05:24:20;12.40;99.90
4594;DHT22;2309;51.674;8.368;2023-05-10T05:26:47;12.40;99.90
4594;DHT22;2309;51.674;8.368;2023-05-10T05:29:15;12.40;99.90
4594;DHT22;2309;51.674;8.368;2023-05-10T05:31:42;10.70;99.90
4594;DHT22;2309;51.674;8.368;2023-05-10T05:34:09;12.40;99.90
4594;DHT22;2309;51.674;8.368;2023-05-10T05:36:36;12.50;99.90
4594;DHT22;2309;51.674;8.368;2023-05-10T05:39:04;12.40;99.90
4594;DHT22;2309;51.674;8.368;2023-05-10T05:41:31;12.50;99.90
4594;DHT22;2309;51.674;8.368;2023-05-10T05:43:58;12.50;99.90
4594;DHT22;2309;51.674;8.368;2023-05-10T05:46:26;12.50;99.90
4594;DHT22;2309;51.674;8.368;2023-05-10T05:48:53;12.60;99.90
4594;DHT22;2309;51.674;8.368;2023-05-10T05:51:21;12.60;99.90
4594;DHT22;2309;51.674;8.368;2023-05-10T05:53:48;12.60;99.90
4594;DHT22;2309;51.674;8.368;2023-05-10T05:56:16;12.70;99.90
4594;DHT22;2309;51.674;8.368;2023-05-10T05:58:50;12.70;99.90
4594;DHT22;2309;51.674;8.368;2023-05-10T06:01:16;12.60;99.90
4594;DHT22;2309;51.674;8.368;2023-05-10T06:03:48;12.70;99.90
4594;DHT22;2309;51.674;8.368;2023-05-10T06:06:14;12.80;99.90
4594;DHT22;2309;51.674;8.368;2023-05-10T06:08:41;12.80;99.90
4594;DHT22;2309;51.674;8.368;2023-05-10T06:11:11;12.90;99.90
4594;DHT22;2309;51.674;8.368;2023-05-10T06:13:39;12.90;99.90
4594;DHT22;2309;51.674;8.368;2023-05-10T06:16:06;12.90;99.90
4594;DHT22;2309;51.674;8.368;2023-05-10T06:18:33;13.00;99.90
4594;DHT22;2309;51.674;8.368;2023-05-10T06:21:00;13.00;99.90
4594;DHT22;2309;51.674;8.368;2023-05-10T06:26:32;13.50;99.90
4594;DHT22;2309;51.674;8.368;2023-05-10T06:28:59;13.60;99.90
4594;DHT22;2309;51.674;8.368;2023-05-10T06:31:25;13.70;99.90
4594;DHT22;2309;51.674;8.368;2023-05-10T06:33:52;13.90;99.90
4594;DHT22;2309;51.674;8.368;2023-05-10T06:36:19;14.00;99.90
4594;DHT22;2309;51.674;8.368;2023-05-10T06:38:46;14.10;99.90
4594;DHT22;2309;51.674;8.368;2023-05-10T06:41:13;14.10;99.90
4594;DHT22;2309;51.674;8.368;2023-05-10T06:43:40;14.10;99.90
4594;DHT22;2309;51.674;8.368;2023-05-10T06:46:08;14.10;99.90
4594;DHT22;2309;51.674;8.368;2023-05-10T06:48:35;14.20;99.90
4594;DHT22;2309;51.674;8.368;2023-05-10T06:51:02;14.20;99.90
4594;DHT22;2309;51.674;8.368;2023-05-10T06:53:29;14.20;99.90
4594;DHT22;2309;51.674;8.368;2023-05-10T06:56:01;14.10;99.90
4594;DHT22;2309;51.674;8.368;2023-05-10T06:58:32;14.00;99.90
4594;DHT22;2309;51.674;8.368;2023-05-10T07:01:18;13.80;99.90
4594;DHT22;2309;51.674;8.368;2023-05-10T07:03:44;13.70;99.90
4594;DHT22;2309;51.674;8.368;2023-05-10T07:06:16;13.60;99.90
4594;DHT22;2309;51.674;8.368;2023-05-10T07:08:45;13.50;99.90
4594;DHT22;2309;51.674;8.368;2023-05-10T07:11:27;13.40;99.90
4594;DHT22;2309;51.674;8.368;2023-05-10T07:13:59;13.50;99.90
4594;DHT22;2309;51.674;8.368;2023-05-10T07:16:27;13.50;99.90
4594;DHT22;2309;51.674;8.368;2023-05-10T07:18:57;13.50;99.90
4594;DHT22;2309;51.674;8.368;2023-05-10T07:21:25;13.40;99.90
4594;DHT22;2309;51.674;8.368;2023-05-10T07:23:54;13.50;99.90
4594;DHT22;2309;51.674;8.368;2023-05-10T07:26:55;13.60;99.90
4594;DHT22;2309;51.674;8.368;2023-05-10T07:29:16;13.80;99.90
4594;DHT22;2309;51.674;8.368;2023-05-10T07:31:45;13.70;99.90
4594;DHT22;2309;51.674;8.368;2023-05-10T07:34:13;13.90;99.90
4594;DHT22;2309;51.674;8.368;2023-05-10T07:36:45;13.90;99.90
4594;DHT22;2309;51.674;8.368;2023-05-10T07:39:10;14.00;99.90
4594;DHT22;2309;51.674;8.368;2023-05-10T07:41:36;14.20;99.90
4594;DHT22;2309;51.674;8.368;2023-05-10T07:44:04;14.40;99.90
4594;DHT22;2309;51.674;8.368;2023-05-10T07:46:31;14.50;99.90
4594;DHT22;2309;51.674;8.368;2023-05-10T07:49:01;14.50;99.90
4594;DHT22;2309;51.674;8.368;2023-05-10T07:51:32;14.60;99.90
4594;DHT22;2309;51.674;8.368;2023-05-10T07:54:02;14.60;99.90
4594;DHT22;2309;51.674;8.368;2023-05-10T07:56:31;14.70;99.90
4594;DHT22;2309;51.674;8.368;2023-05-10T07:59:02;14.70;99.90
4594;DHT22;2309;51.674;8.368;2023-05-10T08:01:37;14.90;99.90
4594;DHT22;2309;51.674;8.368;2023-05-10T08:06:40;14.80;99.90
4594;DHT22;2309;51.674;8.368;2023-05-10T08:09:20;14.90;99.90
4594;DHT22;2309;51.674;8.368;2023-05-10T08:11:43;15.00;99.90
4594;DHT22;2309;51.674;8.368;2023-05-10T08:14:16;15.00;99.90
4594;DHT22;2309;51.674;8.368;2023-05-10T08:16:44;14.80;99.90
4594;DHT22;2309;51.674;8.368;2023-05-10T08:19:22;14.80;99.90
4594;DHT22;2309;51.674;8.368;2023-05-10T08:21:54;14.70;99.90
4594;DHT22;2309;51.674;8.368;2023-05-10T08:24:21;14.70;99.90
4594;DHT22;2309;51.674;8.368;2023-05-10T08:26:48;14.60;99.90
4594;DHT22;2309;51.674;8.368;2023-05-10T08:29:15;14.60;99.90
4594;DHT22;2309;51.674;8.368;2023-05-10T08:31:42;14.70;99.90
4594;DHT22;2309;51.674;8.368;2023-05-10T08:34:09;14.80;99.90
4594;DHT22;2309;51.674;8.368;2023-05-10T08:36:36;15.20;99.90
4594;DHT22;2309;51.674;8.368;2023-05-10T08:39:03;15.30;99.90
4594;DHT22;2309;51.674;8.368;2023-05-10T08:41:32;15.50;99.90
4594;DHT22;2309;51.674;8.368;2023-05-10T08:44:00;15.70;99.90
4594;DHT22;2309;51.674;8.368;2023-05-10T08:46:29;15.90;99.90
4594;DHT22;2309;51.674;8.368;2023-05-10T08:48:57;16.00;99.90
4594;DHT22;2309;51.674;8.368;2023-05-10T08:51:24;16.40;99.90
4594;DHT22;2309;51.674;8.368;2023-05-10T08:53:52;16.40;99.90
4594;DHT22;2309;51.674;8.368;2023-05-10T08:56:19;16.40;99.90
4594;DHT22;2309;51.674;8.368;2023-05-10T08:58:47;16.10;99.90
4594;DHT22;2309;51.674;8.368;2023-05-10T09:01:20;16.50;99.90
4594;DHT22;2309;51.674;8.368;2023-05-10T09:03:52;16.60;99.90
4594;DHT22;2309;51.674;8.368;2023-05-10T09:06:24;16.80;99.90
4594;DHT22;2309;51.674;8.368;2023-05-10T09:08:47;17.30;99.90
4594;DHT22;2309;51.674;8.368;2023-05-10T09:11:14;17.30;99.90
4594;DHT22;2309;51.674;8.368;2023-05-10T09:13:43;17.50;99.90
4594;DHT22;2309;51.674;8.368;2023-05-10T09:16:10;17.80;99.90
4594;DHT22;2309;51.674;8.368;2023-05-10T09:18:37;17.70;99.90
4594;DHT22;2309;51.674;8.368;2023-05-10T09:21:04;17.70;99.90
4594;DHT22;2309;51.674;8.368;2023-05-10T09:23:33;17.70;99.90
4594;DHT22;2309;51.674;8.368;2023-05-10T09:26:11;17.70;99.90
4594;DHT22;2309;51.674;8.368;2023-05-10T09:28:58;17.70;99.90
4594;DHT22;2309;51.674;8.368;2023-05-10T10:15:45;19.10;81.80
4594;DHT22;2309;51.674;8.368;2023-05-10T10:18:12;19.60;67.60
4594;DHT22;2309;51.674;8.368;2023-05-10T10:20:41;19.60;54.80
4594;DHT22;2309;51.674;8.368;2023-05-10T10:41:49;19.70;49.90
4594;DHT22;2309;51.674;8.368;2023-05-10T10:44:36;19.70;49.50
4594;DHT22;2309;51.674;8.368;2023-05-10T10:55:32;19.30;46.00
4594;DHT22;2309;51.674;8.368;2023-05-10T12:03:29;23.50;20.00
4594;DHT22;2309;51.674;8.368;2023-05-10T12:05:56;23.60;19.50
4594;DHT22;2309;51.674;8.368;2023-05-10T12:08:24;25.30;14.80
4594;DHT22;2309;51.674;8.368;2023-05-10T12:10:53;25.40;14.40
4594;DHT22;2309;51.674;8.368;2023-05-10T12:13:20;25.50;5.20
4594;DHT22;2309;51.674;8.368;2023-05-10T12:15:47;25.30;4.00
4594;DHT22;2309;51.674;8.368;2023-05-10T12:18:14;25.00;4.90
4594;DHT22;2309;51.674;8.368;2023-05-10T12:20:41;24.00;1.30
4594;DHT22;2309;51.674;8.368;2023-05-10T12:23:08;22.50;2.60
4594;DHT22;2309;51.674;8.368;2023-05-10T12:25:37;22.20;4.00
4594;DHT22;2309;51.674;8.368;2023-05-10T12:28:07;22.10;1.00
4594;DHT22;2309;51.674;8.368;2023-05-10T12:30:33;22.00;8.10
4594;DHT22;2309;51.674;8.368;2023-05-10T12:33:11;22.10;8.40
4594;DHT22;2309;51.674;8.368;2023-05-10T12:35:32;22.30;9.30
4594;DHT22;2309;51.674;8.368;2023-05-10T12:37:59;22.20;7.50
4594;DHT22;2309;51.674;8.368;2023-05-10T12:40:27;22.50;6.80
4594;DHT22;2309;51.674;8.368;2023-05-10T12:42:55;23.10;5.60
4594;DHT22;2309;51.674;8.368;2023-05-10T12:45:22;23.70;4.50
4594;DHT22;2309;51.674;8.368;2023-05-10T12:47:48;23.90;5.80
4594;DHT22;2309;51.674;8.368;2023-05-10T12:50:17;23.90;6.20
4594;DHT22;2309;51.674;8.368;2023-05-10T12:52:44;23.70;6.20
4594;DHT22;2309;51.674;8.368;2023-05-10T12:55:13;23.10;3.80
4594;DHT22;2309;51.674;8.368;2023-05-10T12:57:48;22.20;5.90
4594;DHT22;2309;51.674;8.368;2023-05-10T13:00:13;21.10;10.00
4594;DHT22;2309;51.674;8.368;2023-05-10T13:02:40;20.60;10.90
4594;DHT22;2309;51.674;8.368;2023-05-10T13:05:07;20.00;14.10
4594;DHT22;2309;51.674;8.368;2023-05-10T13:07:41;19.30;20.50
4594;DHT22;2309;51.674;8.368;2023-05-10T13:10:13;18.90;26.40
4594;DHT22;2309;51.674;8.368;2023-05-10T13:12:42;18.40;39.30
4594;DHT22;2309;51.674;8.368;2023-05-10T13:15:09;17.80;52.90
4594;DHT22;2309;51.674;8.368;2023-05-10T13:17:37;17.60;55.30
4594;DHT22;2309;51.674;8.368;2023-05-10T13:20:06;17.30;73.80
4594;DHT22;2309;51.674;8.368;2023-05-10T13:22:34;17.20;91.10
4594;DHT22;2309;51.674;8.368;2023-05-10T13:25:01;16.90;99.90
4594;DHT22;2309;51.674;8.368;2023-05-10T13:27:28;16.70;99.90
4594;DHT22;2309;51.674;8.368;2023-05-10T13:29:58;16.40;99.90
4594;DHT22;2309;51.674;8.368;2023-05-10T13:32:25;16.40;99.90
4594;DHT22;2309;51.674;8.368;2023-05-10T13:34:52;16.20;99.90
4594;DHT22;2309;51.674;8.368;2023-05-10T13:37:19;16.20;99.90
4594;DHT22;2309;51.674;8.368;2023-05-10T13:39:46;16.00;99.90
4594;DHT22;2309;51.674;8.368;2023-05-10T13:42:13;15.90;99.90
4594;DHT22;2309;51.674;8.368;2023-05-10T13:44:40;16.00;99.90
4594;DHT22;2309;51.674;8.368;2023-05-10T13:47:07;16.00;99.90
4594;DHT22;2309;51.674;8.368;2023-05-10T13:49:34;16.10;99.90
4594;DHT22;2309;51.674;8.368;2023-05-10T13:52:01;16.30;99.90
4594;DHT22;2309;51.674;8.368;2023-05-10T14:42:19;14.80;99.90
4594;DHT22;2309;51.674;8.368;2023-05-10T14:44:48;14.80;99.90
4594;DHT22;2309;51.674;8.368;2023-05-10T14:47:15;14.70;99.90
4594;DHT22;2309;51.674;8.368;2023-05-10T14:49:42;14.60;99.90
4594;DHT22;2309;51.674;8.368;2023-05-10T14:52:09;14.50;99.90
4594;DHT22;2309;51.674;8.368;2023-05-10T14:54:37;14.40;99.90
4594;DHT22;2309;51.674;8.368;2023-05-10T14:57:04;14.40;99.90
4594;DHT22;2309;51.674;8.368;2023-05-10T14:59:32;14.30;99.90
4594;DHT22;2309;51.674;8.368;2023-05-10T15:02:01;14.30;99.90
4594;DHT22;2309;51.674;8.368;2023-05-10T15:04:29;14.40;99.90
4594;DHT22;2309;51.674;8.368;2023-05-10T15:06:56;14.60;99.90
4594;DHT22;2309;51.674;8.368;2023-05-10T15:09:25;14.60;99.90
4594;DHT22;2309;51.674;8.368;2023-05-10T15:11:53;14.80;99.90
4594;DHT22;2309;51.674;8.368;2023-05-10T15:14:20;14.80;99.90
4594;DHT22;2309;51.674;8.368;2023-05-10T15:16:47;14.90;99.90
4594;DHT22;2309;51.674;8.368;2023-05-10T15:19:14;15.30;99.90
4594;DHT22;2309;51.674;8.368;2023-05-10T15:21:41;15.40;99.90
4594;DHT22;2309;51.674;8.368;2023-05-10T15:24:09;15.60;99.90
4594;DHT22;2309;51.674;8.368;2023-05-10T15:26:36;15.20;99.90
4594;DHT22;2309;51.674;8.368;2023-05-10T15:29:03;15.30;99.90
4594;DHT22;2309;51.674;8.368;2023-05-10T15:31:29;15.40;99.90
4594;DHT22;2309;51.674;8.368;2023-05-10T15:33:56;15.50;99.90
4594;DHT22;2309;51.674;8.368;2023-05-10T15:36:25;15.50;99.90
4594;DHT22;2309;51.674;8.368;2023-05-10T15:38:53;15.50;99.90
4594;DHT22;2309;51.674;8.368;2023-05-10T15:41:19;15.50;99.90
4594;DHT22;2309;51.674;8.368;2023-05-10T15:43:46;15.60;99.90
4594;DHT22;2309;51.674;8.368;2023-05-10T15:46:13;15.50;99.90
4594;DHT22;2309;51.674;8.368;2023-05-10T15:48:40;15.50;99.90
4594;DHT22;2309;51.674;8.368;2023-05-10T15:51:07;15.60;99.90
4594;DHT22;2309;51.674;8.368;2023-05-10T15:53:34;15.50;99.90
4594;DHT22;2309;51.674;8.368;2023-05-10T15:56:01;15.50;99.90
4594;DHT22;2309;51.674;8.368;2023-05-10T15:58:29;15.40;99.90
4594;DHT22;2309;51.674;8.368;2023-05-10T16:00:56;15.20;99.90
4594;DHT22;2309;51.674;8.368;2023-05-10T16:03:23;15.20;99.90
4594;DHT22;2309;51.674;8.368;2023-05-10T16:05:50;15.00;99.90
4594;DHT22;2309;51.674;8.368;2023-05-10T16:08:17;15.10;99.90
4594;DHT22;2309;51.674;8.368;2023-05-10T16:10:49;15.00;99.90
4594;DHT22;2309;51.674;8.368;2023-05-10T16:13:16;14.90;99.90
4594;DHT22;2309;51.674;8.368;2023-05-10T16:15:43;14.70;99.90
4594;DHT22;2309;51.674;8.368;2023-05-10T16:18:11;14.80;99.90
4594;DHT22;2309;51.674;8.368;2023-05-10T16:20:40;14.70;99.90
4594;DHT22;2309;51.674;8.368;2023-05-10T16:23:12;14.80;99.90
4594;DHT22;2309;51.674;8.368;2023-05-10T16:25:39;14.60;99.90
4594;DHT22;2309;51.674;8.368;2023-05-10T16:28:07;14.60;99.90
4594;DHT22;2309;51.674;8.368;2023-05-10T16:30:35;14.50;99.90
4594;DHT22;2309;51.674;8.368;2023-05-10T16:33:04;14.40;99.90
4594;DHT22;2309;51.674;8.368;2023-05-10T16:35:30;14.40;99.90
4594;DHT22;2309;51.674;8.368;2023-05-10T16:38:02;14.30;99.90
4594;DHT22;2309;51.674;8.368;2023-05-10T16:40:34;14.10;99.90
4594;DHT22;2309;51.674;8.368;2023-05-10T16:43:01;13.80;99.90
4594;DHT22;2309;51.674;8.368;2023-05-10T16:45:29;13.60;99.90
4594;DHT22;2309;51.674;8.368;2023-05-10T16:47:57;13.70;99.90
4594;DHT22;2309;51.674;8.368;2023-05-10T16:50:24;13.80;99.90
4594;DHT22;2309;51.674;8.368;2023-05-10T16:52:51;13.90;99.90
4594;DHT22;2309;51.674;8.368;2023-05-10T16:55:17;14.10;99.90
4594;DHT22;2309;51.674;8.368;2023-05-10T16:57:44;14.10;99.90
4594;DHT22;2309;51.674;8.368;2023-05-10T17:00:11;14.10;99.90
4594;DHT22;2309;51.674;8.368;2023-05-10T17:02:38;14.30;99.90
4594;DHT22;2309;51.674;8.368;2023-05-10T17:05:05;14.50;99.90
4594;DHT22;2309;51.674;8.368;2023-05-10T17:07:32;14.60;99.90
4594;DHT22;2309;51.674;8.368;2023-05-10T17:09:59;14.70;99.90
4594;DHT22;2309;51.674;8.368;2023-05-10T17:12:26;15.00;99.90
4594;DHT22;2309;51.674;8.368;2023-05-10T17:14:55;15.00;99.90
4594;DHT22;2309;51.674;8.368;2023-05-10T17:17:22;15.30;99.90
4594;DHT22;2309;51.674;8.368;2023-05-10T17:19:49;15.60;99.90
4594;DHT22;2309;51.674;8.368;2023-05-10T17:22:16;15.70;99.90
4594;DHT22;2309;51.674;8.368;2023-05-10T17:24:44;16.00;99.90
4594;DHT22;2309;51.674;8.368;2023-05-10T17:27:11;16.20;99.90
4594;DHT22;2309;51.674;8.368;2023-05-10T17:29:38;16.50;99.90
4594;DHT22;2309;51.674;8.368;2023-05-10T17:32:04;16.60;99.90
4594;DHT22;2309;51.674;8.368;2023-05-10T17:34:34;16.60;99.90
4594;DHT22;2309;51.674;8.368;2023-05-10T17:37:01;16.40;99.90
4594;DHT22;2309;51.674;8.368;2023-05-10T17:39:28;16.10;99.90
4594;DHT22;2309;51.674;8.368;2023-05-10T17:41:56;15.80;99.90
4594;DHT22;2309;51.674;8.368;2023-05-10T17:44:23;15.50;99.90
4594;DHT22;2309;51.674;8.368;2023-05-10T17:46:50;15.10;99.90
4594;DHT22;2309;51.674;8.368;2023-05-10T17:49:17;14.90;99.90
4594;DHT22;2309;51.674;8.368;2023-05-10T17:51:44;14.80;99.90
4594;DHT22;2309;51.674;8.368;2023-05-10T17:54:13;14.60;99.90
4594;DHT22;2309;51.674;8.368;2023-05-10T17:56:40;14.40;99.90
4594;DHT22;2309;51.674;8.368;2023-05-10T17:59:07;14.40;99.90
4594;DHT22;2309;51.674;8.368;2023-05-10T18:01:34;14.30;99.90
4594;DHT22;2309;51.674;8.368;2023-05-10T18:04:02;14.20;99.90
4594;DHT22;2309;51.674;8.368;2023-05-10T18:06:29;14.20;99.90
4594;DHT22;2309;51.674;8.368;2023-05-10T18:08:57;14.10;99.90
4594;DHT22;2309;51.674;8.368;2023-05-10T18:11:23;14.10;99.90
4594;DHT22;2309;51.674;8.368;2023-05-10T18:13:51;14.00;99.90
4594;DHT22;2309;51.674;8.368;2023-05-10T18:16:17;13.90;99.90
4594;DHT22;2309;51.674;8.368;2023-05-10T18:18:44;13.70;99.90
4594;DHT22;2309;51.674;8.368;2023-05-10T18:21:13;13.70;99.90
4594;DHT22;2309;51.674;8.368;2023-05-10T18:23:39;13.70;99.90
4594;DHT22;2309;51.674;8.368;2023-05-10T18:26:06;13.70;99.90
4594;DHT22;2309;51.674;8.368;2023-05-10T18:28:33;13.70;99.90
4594;DHT22;2309;51.674;8.368;2023-05-10T18:31:00;13.70;99.90
4594;DHT22;2309;51.674;8.368;2023-05-10T18:33:27;13.60;99.90
4594;DHT22;2309;51.674;8.368;2023-05-10T18:35:54;13.60;99.90
4594;DHT22;2309;51.674;8.368;2023-05-10T18:38:21;13.50;99.90
4594;DHT22;2309;51.674;8.368;2023-05-10T18:40:47;13.50;99.90
4594;DHT22;2309;51.674;8.368;2023-05-10T18:43:14;13.50;99.90
4594;DHT22;2309;51.674;8.368;2023-05-10T18:45:41;13.40;99.90
4594;DHT22;2309;51.674;8.368;2023-05-10T18:48:08;13.40;99.90
4594;DHT22;2309;51.674;8.368;2023-05-10T18:50:35;13.40;99.90
4594;DHT22;2309;51.674;8.368;2023-05-10T18:53:02;13.40;99.90
4594;DHT22;2309;51.674;8.368;2023-05-10T18:55:29;13.40;99.90
4594;DHT22;2309;51.674;8.368;2023-05-10T18:57:56;13.20;99.90
4594;DHT22;2309;51.674;8.368;2023-05-10T19:00:23;13.30;99.90
4594;DHT22;2309;51.674;8.368;2023-05-10T19:02:50;13.30;99.90
4594;DHT22;2309;51.674;8.368;2023-05-10T19:05:18;13.20;99.90
4594;DHT22;2309;51.674;8.368;2023-05-10T19:07:45;13.20;99.90
4594;DHT22;2309;51.674;8.368;2023-05-10T19:10:12;13.20;99.90
4594;DHT22;2309;51.674;8.368;2023-05-10T19:12:39;13.20;99.90
4594;DHT22;2309;51.674;8.368;2023-05-10T19:15:07;13.10;99.90
4594;DHT22;2309;51.674;8.368;2023-05-10T19:17:34;13.10;99.90
4594;DHT22;2309;51.674;8.368;2023-05-10T19:20:01;13.10;99.90
4594;DHT22;2309;51.674;8.368;2023-05-10T19:22:28;13.00;99.90
4594;DHT22;2309;51.674;8.368;2023-05-10T19:24:55;13.00;99.90
4594;DHT22;2309;51.674;8.368;2023-05-10T19:27:22;13.10;99.90
4594;DHT22;2309;51.674;8.368;2023-05-10T19:29:48;13.00;99.90
4594;DHT22;2309;51.674;8.368;2023-05-10T19:32:17;13.00;99.90
4594;DHT22;2309;51.674;8.368;2023-05-10T19:34:44;13.00;99.90
4594;DHT22;2309;51.674;8.368;2023-05-10T19:37:11;13.00;99.90
4594;DHT22;2309;51.674;8.368;2023-05-10T19:39:38;13.00;99.90